Hauptseite
METAR-TAF:

METAR-TAF

Flughäfen :

RAF Scampton

Scampton, England

Breite: 53-18-27N, Länge: 000-33-03W, Höhe: 62 m

Beobachtung

Neuester Wetterbericht von vor 1 Stunde und 12 Minuten, um 14:50 UTC
Wind 9 kt aus Nord
Temperatur 11°C
Luftfeuchtigkeit 82%
Luftdruck 1021 hPa
Sichtweite 10 km oder mehr

METAR: EGXP 211450Z AUTO 36009KT 9999 // FEW018/// BKN044/// 11/08 Q1021

Zeit: 17:02 (16:02 UTC)

Prognose

Neuester Wetterbericht von vor 5 Stunden und 11 Minuten, um 10:51 UTC
Gültige Prognose vom 21 um 12 UTC bis 21 um 17 UTC
Wind 12 kt aus Nord
Sichtweite 10 km oder mehr
Durchbrochene Bewölkung in der Höhe von 4000 ft
Zeitweise
vom 21 um 12 UTC bis 21 um 17 UTC
Aufgelockert bewölkt in der Höhe von 2000 ft

TAF: EGXP 211051Z 2112/2117 36012KT 9999 BKN040 TEMPO 2112/2117 SCT020

Wetterbeobachtungen und Prognosen von mehr als 4000 Flughäfen (METAR und TAF Bericht).

Die verfügbaren Stationen werden durch gelbe und rote Markierungen auf der Karte dargestellt.

Führen Sie die Maus auf sie, um den Namen der Station zu sehen.

Darauf klicken, um die Beobachtung von Wetterbeobachtungen und Prognosen zu sehen.

Um die Karte zu ändern : klicken Sie auf den grünen Tasten mit einem schwarzen Kreuz Zum Vergrößern, auf den grünen Button mit einem Gedankenstrich zu verkleinern, oder auf die grünen Pfeile für benachbarte Karten.


METAR-TAF: